sensor_id;sensor_type;location;lat;lon;timestamp;P1;durP1;ratioP1;P2;durP2;ratioP2
13057;SDS011;6595;49.578;11.012;2023-11-22T00:00:23;7.7;;;4.7;;
13057;SDS011;6595;49.578;11.012;2023-11-22T00:02:23;7.4;;;5.1;;
13057;SDS011;6595;49.578;11.012;2023-11-22T00:04:24;7.4;;;5.1;;
13057;SDS011;6595;49.578;11.012;2023-11-22T00:06:23;7.4;;;5.1;;
13057;SDS011;6595;49.578;11.012;2023-11-22T00:08:23;8.6;;;5.1;;
13057;SDS011;6595;49.578;11.012;2023-11-22T00:10:23;7.6;;;4.8;;
13057;SDS011;6595;49.578;11.012;2023-11-22T00:12:23;10.2;;;5.1;;
13057;SDS011;6595;49.578;11.012;2023-11-22T00:14:24;10.2;;;5.1;;
13057;SDS011;6595;49.578;11.012;2023-11-22T00:16:23;7.2;;;4.5;;
13057;SDS011;6595;49.578;11.012;2023-11-22T00:18:23;7.2;;;4.5;;
13057;SDS011;6595;49.578;11.012;2023-11-22T00:20:24;7.3;;;4.8;;
13057;SDS011;6595;49.578;11.012;2023-11-22T00:22:23;6.6;;;4.7;;
13057;SDS011;6595;49.578;11.012;2023-11-22T00:24:23;6.6;;;4.7;;
13057;SDS011;6595;49.578;11.012;2023-11-22T00:26:23;7.6;;;4.6;;
13057;SDS011;6595;49.578;11.012;2023-11-22T00:28:23;7.6;;;4.6;;
13057;SDS011;6595;49.578;11.012;2023-11-22T00:30:24;7.4;;;4.7;;
13057;SDS011;6595;49.578;11.012;2023-11-22T00:32:23;8.0;;;4.7;;
13057;SDS011;6595;49.578;11.012;2023-11-22T00:34:23;8.0;;;4.7;;
13057;SDS011;6595;49.578;11.012;2023-11-22T00:36:23;8.0;;;4.7;;
13057;SDS011;6595;49.578;11.012;2023-11-22T00:38:23;8.0;;;4.7;;
13057;SDS011;6595;49.578;11.012;2023-11-22T00:40:23;7.2;;;4.7;;
13057;SDS011;6595;49.578;11.012;2023-11-22T00:42:24;7.3;;;4.2;;
13057;SDS011;6595;49.578;11.012;2023-11-22T00:44:23;8.2;;;4.0;;
13057;SDS011;6595;49.578;11.012;2023-11-22T00:46:24;8.2;;;4.0;;
13057;SDS011;6595;49.578;11.012;2023-11-22T00:48:23;7.1;;;4.3;;
13057;SDS011;6595;49.578;11.012;2023-11-22T00:50:23;7.4;;;5.3;;
13057;SDS011;6595;49.578;11.012;2023-11-22T00:52:23;7.9;;;4.4;;
13057;SDS011;6595;49.578;11.012;2023-11-22T00:54:23;7.8;;;4.0;;
13057;SDS011;6595;49.578;11.012;2023-11-22T00:56:24;7.8;;;4.0;;
13057;SDS011;6595;49.578;11.012;2023-11-22T00:58:23;7.0;;;4.1;;
13057;SDS011;6595;49.578;11.012;2023-11-22T01:00:23;6.5;;;3.9;;
13057;SDS011;6595;49.578;11.012;2023-11-22T01:02:23;8.3;;;4.6;;
13057;SDS011;6595;49.578;11.012;2023-11-22T01:04:23;8.3;;;4.6;;
13057;SDS011;6595;49.578;11.012;2023-11-22T01:06:24;6.5;;;4.0;;
13057;SDS011;6595;49.578;11.012;2023-11-22T01:08:23;7.1;;;4.1;;
13057;SDS011;6595;49.578;11.012;2023-11-22T01:10:23;6.5;;;3.9;;
13057;SDS011;6595;49.578;11.012;2023-11-22T01:12:23;6.5;;;3.9;;
13057;SDS011;6595;49.578;11.012;2023-11-22T01:14:23;9.1;;;4.1;;
13057;SDS011;6595;49.578;11.012;2023-11-22T01:16:23;7.4;;;4.2;;
13057;SDS011;6595;49.578;11.012;2023-11-22T01:18:23;6.9;;;4.3;;
13057;SDS011;6595;49.578;11.012;2023-11-22T01:20:23;8.0;;;4.3;;
13057;SDS011;6595;49.578;11.012;2023-11-22T01:22:24;6.7;;;4.5;;
13057;SDS011;6595;49.578;11.012;2023-11-22T01:24:23;6.7;;;4.5;;
13057;SDS011;6595;49.578;11.012;2023-11-22T01:26:23;7.9;;;4.5;;
13057;SDS011;6595;49.578;11.012;2023-11-22T01:28:24;7.1;;;4.0;;
13057;SDS011;6595;49.578;11.012;2023-11-22T01:30:23;7.8;;;4.6;;
13057;SDS011;6595;49.578;11.012;2023-11-22T01:32:24;7.8;;;4.6;;
13057;SDS011;6595;49.578;11.012;2023-11-22T01:34:24;7.8;;;4.5;;
13057;SDS011;6595;49.578;11.012;2023-11-22T01:36:23;6.8;;;4.3;;
13057;SDS011;6595;49.578;11.012;2023-11-22T01:38:24;7.7;;;4.3;;
13057;SDS011;6595;49.578;11.012;2023-11-22T01:40:23;7.7;;;4.3;;
13057;SDS011;6595;49.578;11.012;2023-11-22T01:42:23;8.0;;;4.6;;
13057;SDS011;6595;49.578;11.012;2023-11-22T01:44:24;8.5;;;4.6;;
13057;SDS011;6595;49.578;11.012;2023-11-22T01:46:24;7.4;;;4.7;;
13057;SDS011;6595;49.578;11.012;2023-11-22T01:48:23;8.3;;;4.7;;
13057;SDS011;6595;49.578;11.012;2023-11-22T01:50:23;8.3;;;4.7;;
13057;SDS011;6595;49.578;11.012;2023-11-22T01:52:23;7.5;;;4.6;;
13057;SDS011;6595;49.578;11.012;2023-11-22T01:54:24;7.5;;;4.6;;
13057;SDS011;6595;49.578;11.012;2023-11-22T01:56:24;7.5;;;4.6;;
13057;SDS011;6595;49.578;11.012;2023-11-22T01:58:23;7.8;;;4.5;;
13057;SDS011;6595;49.578;11.012;2023-11-22T02:00:24;7.8;;;4.5;;
13057;SDS011;6595;49.578;11.012;2023-11-22T02:02:23;8.9;;;4.5;;
13057;SDS011;6595;49.578;11.012;2023-11-22T02:04:24;7.3;;;4.8;;
13057;SDS011;6595;49.578;11.012;2023-11-22T02:06:23;6.9;;;4.3;;
13057;SDS011;6595;49.578;11.012;2023-11-22T02:08:24;8.5;;;4.8;;
13057;SDS011;6595;49.578;11.012;2023-11-22T02:10:23;8.5;;;4.8;;
13057;SDS011;6595;49.578;11.012;2023-11-22T02:12:23;6.3;;;4.2;;
13057;SDS011;6595;49.578;11.012;2023-11-22T02:14:24;6.3;;;4.2;;
13057;SDS011;6595;49.578;11.012;2023-11-22T02:16:23;7.7;;;4.7;;
13057;SDS011;6595;49.578;11.012;2023-11-22T02:18:23;7.7;;;4.3;;
13057;SDS011;6595;49.578;11.012;2023-11-22T02:20:24;7.7;;;4.3;;
13057;SDS011;6595;49.578;11.012;2023-11-22T02:22:23;7.7;;;4.3;;
13057;SDS011;6595;49.578;11.012;2023-11-22T02:24:23;6.8;;;4.0;;
13057;SDS011;6595;49.578;11.012;2023-11-22T02:26:24;7.6;;;4.3;;
13057;SDS011;6595;49.578;11.012;2023-11-22T02:28:23;6.7;;;4.0;;
13057;SDS011;6595;49.578;11.012;2023-11-22T02:30:23;6.7;;;4.0;;
13057;SDS011;6595;49.578;11.012;2023-11-22T02:32:24;6.9;;;4.1;;
13057;SDS011;6595;49.578;11.012;2023-11-22T02:34:23;7.1;;;3.8;;
13057;SDS011;6595;49.578;11.012;2023-11-22T02:36:23;7.3;;;4.3;;
13057;SDS011;6595;49.578;11.012;2023-11-22T02:38:23;6.7;;;4.0;;
13057;SDS011;6595;49.578;11.012;2023-11-22T02:40:23;6.7;;;4.0;;
13057;SDS011;6595;49.578;11.012;2023-11-22T02:42:24;7.3;;;3.9;;
13057;SDS011;6595;49.578;11.012;2023-11-22T02:44:23;6.0;;;3.7;;
13057;SDS011;6595;49.578;11.012;2023-11-22T02:46:23;6.0;;;3.7;;
13057;SDS011;6595;49.578;11.012;2023-11-22T02:48:24;8.9;;;4.7;;
13057;SDS011;6595;49.578;11.012;2023-11-22T02:50:23;8.9;;;4.7;;
13057;SDS011;6595;49.578;11.012;2023-11-22T02:52:23;6.7;;;4.2;;
13057;SDS011;6595;49.578;11.012;2023-11-22T02:54:24;7.3;;;4.5;;
13057;SDS011;6595;49.578;11.012;2023-11-22T02:56:23;7.6;;;4.0;;
13057;SDS011;6595;49.578;11.012;2023-11-22T02:58:23;7.6;;;4.0;;
13057;SDS011;6595;49.578;11.012;2023-11-22T03:00:24;7.0;;;4.2;;
13057;SDS011;6595;49.578;11.012;2023-11-22T03:02:23;7.0;;;4.2;;
13057;SDS011;6595;49.578;11.012;2023-11-22T03:04:23;6.6;;;4.1;;
13057;SDS011;6595;49.578;11.012;2023-11-22T03:06:24;6.6;;;4.3;;
13057;SDS011;6595;49.578;11.012;2023-11-22T03:08:23;6.6;;;4.3;;
13057;SDS011;6595;49.578;11.012;2023-11-22T03:10:23;7.5;;;4.0;;
13057;SDS011;6595;49.578;11.012;2023-11-22T03:12:24;7.8;;;4.3;;
13057;SDS011;6595;49.578;11.012;2023-11-22T03:14:23;6.0;;;3.8;;
13057;SDS011;6595;49.578;11.012;2023-11-22T03:16:23;6.0;;;3.8;;
13057;SDS011;6595;49.578;11.012;2023-11-22T03:18:24;8.2;;;4.4;;
13057;SDS011;6595;49.578;11.012;2023-11-22T03:20:23;7.2;;;4.2;;
13057;SDS011;6595;49.578;11.012;2023-11-22T03:22:23;7.9;;;4.1;;
13057;SDS011;6595;49.578;11.012;2023-11-22T03:24:24;7.9;;;4.6;;
13057;SDS011;6595;49.578;11.012;2023-11-22T03:26:23;7.9;;;4.6;;
13057;SDS011;6595;49.578;11.012;2023-11-22T03:28:24;7.6;;;4.5;;
13057;SDS011;6595;49.578;11.012;2023-11-22T03:30:23;7.0;;;4.1;;
13057;SDS011;6595;49.578;11.012;2023-11-22T03:32:23;8.0;;;4.1;;
13057;SDS011;6595;49.578;11.012;2023-11-22T03:34:24;7.3;;;4.4;;
13057;SDS011;6595;49.578;11.012;2023-11-22T03:36:23;7.3;;;4.4;;
13057;SDS011;6595;49.578;11.012;2023-11-22T03:38:23;8.6;;;4.8;;
13057;SDS011;6595;49.578;11.012;2023-11-22T03:40:24;9.7;;;5.0;;
13057;SDS011;6595;49.578;11.012;2023-11-22T03:42:23;8.2;;;5.1;;
13057;SDS011;6595;49.578;11.012;2023-11-22T03:44:23;8.0;;;4.7;;
13057;SDS011;6595;49.578;11.012;2023-11-22T03:46:24;8.0;;;4.7;;
13057;SDS011;6595;49.578;11.012;2023-11-22T03:48:23;9.1;;;5.4;;
13057;SDS011;6595;49.578;11.012;2023-11-22T03:50:24;9.1;;;5.4;;
13057;SDS011;6595;49.578;11.012;2023-11-22T03:52:23;10.7;;;5.2;;
13057;SDS011;6595;49.578;11.012;2023-11-22T03:54:23;8.9;;;5.1;;
13057;SDS011;6595;49.578;11.012;2023-11-22T03:56:24;8.9;;;5.1;;
13057;SDS011;6595;49.578;11.012;2023-11-22T03:58:23;9.9;;;5.2;;
13057;SDS011;6595;49.578;11.012;2023-11-22T04:00:24;8.0;;;4.8;;
13057;SDS011;6595;49.578;11.012;2023-11-22T04:02:23;8.5;;;5.1;;
13057;SDS011;6595;49.578;11.012;2023-11-22T04:04:23;9.0;;;5.3;;
13057;SDS011;6595;49.578;11.012;2023-11-22T04:06:23;8.9;;;5.1;;
13057;SDS011;6595;49.578;11.012;2023-11-22T04:08:24;8.9;;;5.1;;
13057;SDS011;6595;49.578;11.012;2023-11-22T04:10:23;9.0;;;5.1;;
13057;SDS011;6595;49.578;11.012;2023-11-22T04:12:23;8.0;;;5.1;;
13057;SDS011;6595;49.578;11.012;2023-11-22T04:14:24;9.1;;;5.2;;
13057;SDS011;6595;49.578;11.012;2023-11-22T04:16:23;8.6;;;5.2;;
13057;SDS011;6595;49.578;11.012;2023-11-22T04:18:24;8.6;;;5.2;;
13057;SDS011;6595;49.578;11.012;2023-11-22T04:20:23;8.9;;;4.9;;
13057;SDS011;6595;49.578;11.012;2023-11-22T04:22:23;8.5;;;5.0;;
13057;SDS011;6595;49.578;11.012;2023-11-22T04:24:24;9.6;;;5.1;;
13057;SDS011;6595;49.578;11.012;2023-11-22T04:26:23;9.6;;;5.1;;
13057;SDS011;6595;49.578;11.012;2023-11-22T04:28:23;7.3;;;5.0;;
13057;SDS011;6595;49.578;11.012;2023-11-22T04:30:24;8.5;;;4.8;;
13057;SDS011;6595;49.578;11.012;2023-11-22T04:32:23;7.2;;;4.9;;
13057;SDS011;6595;49.578;11.012;2023-11-22T04:34:23;7.2;;;4.9;;
13057;SDS011;6595;49.578;11.012;2023-11-22T04:36:24;8.4;;;5.4;;
13057;SDS011;6595;49.578;11.012;2023-11-22T04:38:23;8.9;;;4.8;;
13057;SDS011;6595;49.578;11.012;2023-11-22T04:40:23;8.7;;;4.4;;
13057;SDS011;6595;49.578;11.012;2023-11-22T04:42:24;8.6;;;4.9;;
13057;SDS011;6595;49.578;11.012;2023-11-22T04:44:23;8.6;;;4.9;;
13057;SDS011;6595;49.578;11.012;2023-11-22T04:46:24;8.2;;;4.7;;
13057;SDS011;6595;49.578;11.012;2023-11-22T04:48:23;8.4;;;5.6;;
13057;SDS011;6595;49.578;11.012;2023-11-22T04:50:23;7.9;;;4.8;;
13057;SDS011;6595;49.578;11.012;2023-11-22T04:52:24;9.6;;;4.9;;
13057;SDS011;6595;49.578;11.012;2023-11-22T04:54:23;8.8;;;4.9;;
13057;SDS011;6595;49.578;11.012;2023-11-22T04:56:23;8.8;;;4.9;;
13057;SDS011;6595;49.578;11.012;2023-11-22T04:58:24;8.5;;;4.7;;
13057;SDS011;6595;49.578;11.012;2023-11-22T05:00:23;9.2;;;5.0;;
13057;SDS011;6595;49.578;11.012;2023-11-22T05:02:23;9.2;;;4.7;;
13057;SDS011;6595;49.578;11.012;2023-11-22T05:04:24;9.2;;;4.7;;
13057;SDS011;6595;49.578;11.012;2023-11-22T05:06:23;12.7;;;6.6;;
13057;SDS011;6595;49.578;11.012;2023-11-22T05:08:23;10.2;;;5.4;;
13057;SDS011;6595;49.578;11.012;2023-11-22T05:10:23;10.2;;;5.4;;
13057;SDS011;6595;49.578;11.012;2023-11-22T05:12:23;10.6;;;5.9;;
13057;SDS011;6595;49.578;11.012;2023-11-22T05:14:24;11.2;;;5.9;;
13057;SDS011;6595;49.578;11.012;2023-11-22T05:16:23;11.2;;;5.9;;
13057;SDS011;6595;49.578;11.012;2023-11-22T05:18:23;9.6;;;5.6;;
13057;SDS011;6595;49.578;11.012;2023-11-22T05:20:23;8.9;;;5.5;;
13057;SDS011;6595;49.578;11.012;2023-11-22T05:22:23;8.9;;;5.5;;
13057;SDS011;6595;49.578;11.012;2023-11-22T05:24:23;11.7;;;6.5;;
13057;SDS011;6595;49.578;11.012;2023-11-22T05:26:23;11.3;;;6.1;;
13057;SDS011;6595;49.578;11.012;2023-11-22T05:28:23;11.1;;;5.9;;
13057;SDS011;6595;49.578;11.012;2023-11-22T05:30:24;11.2;;;6.5;;
13057;SDS011;6595;49.578;11.012;2023-11-22T05:32:23;11.2;;;6.5;;
13057;SDS011;6595;49.578;11.012;2023-11-22T05:34:23;12.4;;;6.7;;
13057;SDS011;6595;49.578;11.012;2023-11-22T05:36:24;11.2;;;6.3;;
13057;SDS011;6595;49.578;11.012;2023-11-22T05:38:23;11.2;;;6.3;;
13057;SDS011;6595;49.578;11.012;2023-11-22T05:40:23;12.5;;;6.6;;
13057;SDS011;6595;49.578;11.012;2023-11-22T05:42:24;12.5;;;6.6;;
13057;SDS011;6595;49.578;11.012;2023-11-22T05:44:23;15.1;;;7.6;;
13057;SDS011;6595;49.578;11.012;2023-11-22T05:46:23;15.1;;;7.6;;
13057;SDS011;6595;49.578;11.012;2023-11-22T05:48:24;14.3;;;7.2;;
13057;SDS011;6595;49.578;11.012;2023-11-22T05:50:23;14.3;;;7.2;;
13057;SDS011;6595;49.578;11.012;2023-11-22T05:52:23;14.9;;;7.5;;
13057;SDS011;6595;49.578;11.012;2023-11-22T05:54:24;13.7;;;7.9;;
13057;SDS011;6595;49.578;11.012;2023-11-22T05:56:23;14.4;;;7.4;;
13057;SDS011;6595;49.578;11.012;2023-11-22T05:58:23;14.8;;;7.8;;
13057;SDS011;6595;49.578;11.012;2023-11-22T06:00:24;14.8;;;7.8;;
13057;SDS011;6595;49.578;11.012;2023-11-22T06:02:23;16.2;;;7.3;;
13057;SDS011;6595;49.578;11.012;2023-11-22T06:04:23;14.8;;;7.6;;
13057;SDS011;6595;49.578;11.012;2023-11-22T06:06:23;14.7;;;7.9;;
13057;SDS011;6595;49.578;11.012;2023-11-22T06:08:24;14.5;;;7.6;;
13057;SDS011;6595;49.578;11.012;2023-11-22T06:10:23;15.4;;;8.0;;
13057;SDS011;6595;49.578;11.012;2023-11-22T06:12:23;15.4;;;8.0;;
13057;SDS011;6595;49.578;11.012;2023-11-22T06:14:23;14.7;;;7.5;;
13057;SDS011;6595;49.578;11.012;2023-11-22T06:16:23;15.2;;;8.4;;
13057;SDS011;6595;49.578;11.012;2023-11-22T06:18:24;15.7;;;8.5;;
13057;SDS011;6595;49.578;11.012;2023-11-22T06:20:23;15.7;;;8.5;;
13057;SDS011;6595;49.578;11.012;2023-11-22T06:22:23;14.6;;;8.0;;
13057;SDS011;6595;49.578;11.012;2023-11-22T06:24:23;14.1;;;8.1;;
13057;SDS011;6595;49.578;11.012;2023-11-22T06:26:23;14.1;;;7.9;;
13057;SDS011;6595;49.578;11.012;2023-11-22T06:28:24;18.3;;;8.5;;
13057;SDS011;6595;49.578;11.012;2023-11-22T06:30:23;18.3;;;8.5;;
13057;SDS011;6595;49.578;11.012;2023-11-22T06:32:23;17.7;;;8.2;;
13057;SDS011;6595;49.578;11.012;2023-11-22T06:34:23;16.0;;;8.0;;
13057;SDS011;6595;49.578;11.012;2023-11-22T06:36:24;16.5;;;8.0;;
13057;SDS011;6595;49.578;11.012;2023-11-22T06:38:23;16.5;;;8.0;;
13057;SDS011;6595;49.578;11.012;2023-11-22T06:40:24;15.9;;;8.3;;
13057;SDS011;6595;49.578;11.012;2023-11-22T06:42:23;17.0;;;8.8;;
13057;SDS011;6595;49.578;11.012;2023-11-22T06:44:23;15.6;;;8.2;;
13057;SDS011;6595;49.578;11.012;2023-11-22T06:46:24;16.7;;;8.6;;
13057;SDS011;6595;49.578;11.012;2023-11-22T06:48:23;16.7;;;8.6;;
13057;SDS011;6595;49.578;11.012;2023-11-22T06:50:24;17.4;;;8.1;;
13057;SDS011;6595;49.578;11.012;2023-11-22T06:52:24;14.8;;;7.2;;
13057;SDS011;6595;49.578;11.012;2023-11-22T06:54:23;16.6;;;8.2;;
13057;SDS011;6595;49.578;11.012;2023-11-22T06:56:24;14.6;;;7.4;;
13057;SDS011;6595;49.578;11.012;2023-11-22T06:58:23;14.6;;;7.4;;
13057;SDS011;6595;49.578;11.012;2023-11-22T07:00:23;16.0;;;8.4;;
13057;SDS011;6595;49.578;11.012;2023-11-22T07:02:24;14.2;;;7.4;;
13057;SDS011;6595;49.578;11.012;2023-11-22T07:04:24;16.5;;;7.6;;
13057;SDS011;6595;49.578;11.012;2023-11-22T07:06:23;16.1;;;8.4;;
13057;SDS011;6595;49.578;11.012;2023-11-22T07:08:23;16.1;;;8.4;;
13057;SDS011;6595;49.578;11.012;2023-11-22T07:10:24;16.2;;;8.2;;
13057;SDS011;6595;49.578;11.012;2023-11-22T07:12:23;16.2;;;8.2;;
13057;SDS011;6595;49.578;11.012;2023-11-22T07:14:23;17.6;;;8.8;;
13057;SDS011;6595;49.578;11.012;2023-11-22T07:16:24;17.3;;;8.8;;
13057;SDS011;6595;49.578;11.012;2023-11-22T07:18:24;17.3;;;8.8;;
13057;SDS011;6595;49.578;11.012;2023-11-22T07:20:23;17.7;;;8.2;;
13057;SDS011;6595;49.578;11.012;2023-11-22T07:22:23;17.3;;;8.4;;
13057;SDS011;6595;49.578;11.012;2023-11-22T07:24:24;15.3;;;8.5;;
13057;SDS011;6595;49.578;11.012;2023-11-22T07:26:23;15.3;;;8.5;;
13057;SDS011;6595;49.578;11.012;2023-11-22T07:28:23;15.6;;;8.3;;
13057;SDS011;6595;49.578;11.012;2023-11-22T07:30:24;16.3;;;8.1;;
13057;SDS011;6595;49.578;11.012;2023-11-22T07:32:23;16.3;;;8.4;;
13057;SDS011;6595;49.578;11.012;2023-11-22T07:34:23;16.7;;;8.5;;
13057;SDS011;6595;49.578;11.012;2023-11-22T07:36:23;16.7;;;8.5;;
13057;SDS011;6595;49.578;11.012;2023-11-22T07:38:23;17.2;;;8.2;;
13057;SDS011;6595;49.578;11.012;2023-11-22T07:40:23;16.5;;;8.9;;
13057;SDS011;6595;49.578;11.012;2023-11-22T07:42:24;17.0;;;8.4;;
13057;SDS011;6595;49.578;11.012;2023-11-22T07:44:23;17.0;;;8.4;;
13057;SDS011;6595;49.578;11.012;2023-11-22T07:46:23;16.6;;;7.7;;
13057;SDS011;6595;49.578;11.012;2023-11-22T07:48:24;13.8;;;7.8;;
13057;SDS011;6595;49.578;11.012;2023-11-22T07:50:23;15.5;;;7.7;;
13057;SDS011;6595;49.578;11.012;2023-11-22T07:52:23;15.5;;;7.7;;
13057;SDS011;6595;49.578;11.012;2023-11-22T07:54:24;15.4;;;7.6;;
13057;SDS011;6595;49.578;11.012;2023-11-22T07:56:23;15.4;;;7.6;;
13057;SDS011;6595;49.578;11.012;2023-11-22T07:58:23;14.4;;;7.0;;
13057;SDS011;6595;49.578;11.012;2023-11-22T08:00:23;14.4;;;7.0;;
13057;SDS011;6595;49.578;11.012;2023-11-22T08:02:23;14.4;;;7.0;;
13057;SDS011;6595;49.578;11.012;2023-11-22T08:04:23;13.1;;;7.5;;
13057;SDS011;6595;49.578;11.012;2023-11-22T08:06:23;13.1;;;7.5;;
13057;SDS011;6595;49.578;11.012;2023-11-22T08:08:23;14.8;;;7.6;;
13057;SDS011;6595;49.578;11.012;2023-11-22T08:10:24;15.4;;;8.3;;
13057;SDS011;6595;49.578;11.012;2023-11-22T08:12:23;17.6;;;8.7;;
13057;SDS011;6595;49.578;11.012;2023-11-22T08:14:23;18.2;;;9.6;;
13057;SDS011;6595;49.578;11.012;2023-11-22T08:16:24;18.2;;;9.6;;
13057;SDS011;6595;49.578;11.012;2023-11-22T08:18:23;19.0;;;10.3;;
13057;SDS011;6595;49.578;11.012;2023-11-22T08:20:23;22.8;;;11.4;;
13057;SDS011;6595;49.578;11.012;2023-11-22T08:22:24;20.9;;;10.3;;
13057;SDS011;6595;49.578;11.012;2023-11-22T08:24:24;22.0;;;10.9;;
13057;SDS011;6595;49.578;11.012;2023-11-22T08:26:23;22.0;;;10.9;;
13057;SDS011;6595;49.578;11.012;2023-11-22T08:28:24;20.6;;;10.1;;
13057;SDS011;6595;49.578;11.012;2023-11-22T08:30:23;25.4;;;11.2;;
13057;SDS011;6595;49.578;11.012;2023-11-22T08:32:23;19.4;;;9.7;;
13057;SDS011;6595;49.578;11.012;2023-11-22T08:34:24;20.5;;;10.9;;
13057;SDS011;6595;49.578;11.012;2023-11-22T08:36:23;20.5;;;10.9;;
13057;SDS011;6595;49.578;11.012;2023-11-22T08:38:23;17.2;;;9.7;;
13057;SDS011;6595;49.578;11.012;2023-11-22T08:40:24;19.0;;;10.8;;
13057;SDS011;6595;49.578;11.012;2023-11-22T08:42:23;19.0;;;10.8;;
13057;SDS011;6595;49.578;11.012;2023-11-22T08:44:23;17.9;;;9.7;;
13057;SDS011;6595;49.578;11.012;2023-11-22T08:46:24;20.5;;;10.2;;
13057;SDS011;6595;49.578;11.012;2023-11-22T08:48:23;15.9;;;8.8;;
13057;SDS011;6595;49.578;11.012;2023-11-22T08:50:23;19.3;;;9.7;;
13057;SDS011;6595;49.578;11.012;2023-11-22T08:52:24;21.1;;;10.0;;
13057;SDS011;6595;49.578;11.012;2023-11-22T08:54:23;21.1;;;10.0;;
13057;SDS011;6595;49.578;11.012;2023-11-22T08:56:23;16.0;;;8.9;;
13057;SDS011;6595;49.578;11.012;2023-11-22T08:58:24;17.7;;;8.9;;
13057;SDS011;6595;49.578;11.012;2023-11-22T09:00:23;16.7;;;9.1;;
13057;SDS011;6595;49.578;11.012;2023-11-22T09:02:23;16.7;;;9.1;;
13057;SDS011;6595;49.578;11.012;2023-11-22T09:04:23;18.1;;;8.8;;
13057;SDS011;6595;49.578;11.012;2023-11-22T09:06:24;17.8;;;9.7;;
13057;SDS011;6595;49.578;11.012;2023-11-22T09:08:23;15.7;;;8.3;;
13057;SDS011;6595;49.578;11.012;2023-11-22T09:10:24;12.7;;;6.8;;
13057;SDS011;6595;49.578;11.012;2023-11-22T09:12:23;12.7;;;6.8;;
13057;SDS011;6595;49.578;11.012;2023-11-22T09:14:23;12.7;;;6.7;;
13057;SDS011;6595;49.578;11.012;2023-11-22T09:16:24;12.5;;;6.8;;
13057;SDS011;6595;49.578;11.012;2023-11-22T09:18:23;12.8;;;6.5;;
13057;SDS011;6595;49.578;11.012;2023-11-22T09:20:23;11.6;;;6.2;;
13057;SDS011;6595;49.578;11.012;2023-11-22T09:22:23;11.6;;;6.2;;
13057;SDS011;6595;49.578;11.012;2023-11-22T09:24:23;10.6;;;6.3;;
13057;SDS011;6595;49.578;11.012;2023-11-22T09:26:24;10.6;;;6.3;;
13057;SDS011;6595;49.578;11.012;2023-11-22T09:28:23;13.3;;;6.6;;
13057;SDS011;6595;49.578;11.012;2023-11-22T09:30:24;11.0;;;6.2;;
13057;SDS011;6595;49.578;11.012;2023-11-22T09:32:23;11.0;;;6.2;;
13057;SDS011;6595;49.578;11.012;2023-11-22T09:34:24;11.7;;;6.2;;
13057;SDS011;6595;49.578;11.012;2023-11-22T09:36:23;11.2;;;6.1;;
13057;SDS011;6595;49.578;11.012;2023-11-22T09:38:24;11.6;;;5.6;;
13057;SDS011;6595;49.578;11.012;2023-11-22T09:40:23;11.0;;;5.5;;
13057;SDS011;6595;49.578;11.012;2023-11-22T09:42:24;11.0;;;5.5;;
13057;SDS011;6595;49.578;11.012;2023-11-22T09:44:23;10.9;;;5.7;;
13057;SDS011;6595;49.578;11.012;2023-11-22T09:46:23;11.3;;;6.0;;
13057;SDS011;6595;49.578;11.012;2023-11-22T09:48:23;9.4;;;5.4;;
13057;SDS011;6595;49.578;11.012;2023-11-22T09:50:35;12.3;;;6.1;;
13057;SDS011;6595;49.578;11.012;2023-11-22T09:52:23;12.9;;;6.2;;
13057;SDS011;6595;49.578;11.012;2023-11-22T09:54:24;12.9;;;6.2;;
13057;SDS011;6595;49.578;11.012;2023-11-22T09:56:24;12.1;;;6.4;;
13057;SDS011;6595;49.578;11.012;2023-11-22T09:58:23;10.3;;;5.9;;
13057;SDS011;6595;49.578;11.012;2023-11-22T10:00:24;10.6;;;6.2;;
13057;SDS011;6595;49.578;11.012;2023-11-22T10:02:23;10.6;;;6.2;;
13057;SDS011;6595;49.578;11.012;2023-11-22T10:04:23;11.5;;;6.6;;
13057;SDS011;6595;49.578;11.012;2023-11-22T10:06:24;9.1;;;5.6;;
13057;SDS011;6595;49.578;11.012;2023-11-22T10:08:23;10.1;;;6.0;;
13057;SDS011;6595;49.578;11.012;2023-11-22T10:10:23;10.4;;;6.1;;
13057;SDS011;6595;49.578;11.012;2023-11-22T10:12:24;10.4;;;6.1;;
13057;SDS011;6595;49.578;11.012;2023-11-22T10:14:23;11.2;;;6.3;;
13057;SDS011;6595;49.578;11.012;2023-11-22T10:16:23;10.0;;;5.8;;
13057;SDS011;6595;49.578;11.012;2023-11-22T10:18:23;10.7;;;6.1;;
13057;SDS011;6595;49.578;11.012;2023-11-22T10:20:23;10.7;;;6.1;;
13057;SDS011;6595;49.578;11.012;2023-11-22T10:22:23;10.7;;;6.1;;
13057;SDS011;6595;49.578;11.012;2023-11-22T10:24:23;9.0;;;5.3;;
13057;SDS011;6595;49.578;11.012;2023-11-22T10:26:24;10.7;;;6.0;;
13057;SDS011;6595;49.578;11.012;2023-11-22T10:28:25;11.2;;;5.9;;
13057;SDS011;6595;49.578;11.012;2023-11-22T10:30:23;11.2;;;5.9;;
13057;SDS011;6595;49.578;11.012;2023-11-22T10:32:24;10.2;;;5.7;;
13057;SDS011;6595;49.578;11.012;2023-11-22T10:34:24;10.1;;;6.4;;
13057;SDS011;6595;49.578;11.012;2023-11-22T10:36:24;10.3;;;6.0;;
13057;SDS011;6595;49.578;11.012;2023-11-22T10:38:23;10.3;;;6.0;;
13057;SDS011;6595;49.578;11.012;2023-11-22T10:40:23;11.9;;;6.3;;
13057;SDS011;6595;49.578;11.012;2023-11-22T10:42:24;11.9;;;5.8;;
13057;SDS011;6595;49.578;11.012;2023-11-22T10:44:23;11.5;;;6.1;;
13057;SDS011;6595;49.578;11.012;2023-11-22T10:46:24;12.2;;;6.1;;
13057;SDS011;6595;49.578;11.012;2023-11-22T10:48:24;12.2;;;6.1;;
13057;SDS011;6595;49.578;11.012;2023-11-22T10:50:23;10.6;;;6.1;;
13057;SDS011;6595;49.578;11.012;2023-11-22T10:52:24;11.5;;;6.3;;
13057;SDS011;6595;49.578;11.012;2023-11-22T10:54:24;11.5;;;6.3;;
13057;SDS011;6595;49.578;11.012;2023-11-22T10:56:23;10.1;;;5.7;;
13057;SDS011;6595;49.578;11.012;2023-11-22T10:58:23;10.1;;;5.7;;
13057;SDS011;6595;49.578;11.012;2023-11-22T11:00:23;10.2;;;5.9;;
13057;SDS011;6595;49.578;11.012;2023-11-22T11:02:23;10.2;;;5.9;;
13057;SDS011;6595;49.578;11.012;2023-11-22T11:04:24;10.1;;;5.5;;
13057;SDS011;6595;49.578;11.012;2023-11-22T11:06:25;9.7;;;5.6;;
13057;SDS011;6595;49.578;11.012;2023-11-22T11:08:23;9.7;;;5.6;;
13057;SDS011;6595;49.578;11.012;2023-11-22T11:10:24;13.1;;;6.1;;
13057;SDS011;6595;49.578;11.012;2023-11-22T11:12:24;13.1;;;6.1;;
13057;SDS011;6595;49.578;11.012;2023-11-22T11:14:23;13.1;;;6.1;;
13057;SDS011;6595;49.578;11.012;2023-11-22T11:16:23;9.9;;;5.5;;
13057;SDS011;6595;49.578;11.012;2023-11-22T11:18:24;12.4;;;5.9;;
13057;SDS011;6595;49.578;11.012;2023-11-22T11:20:23;12.4;;;5.9;;
13057;SDS011;6595;49.578;11.012;2023-11-22T11:22:23;9.8;;;5.5;;
13057;SDS011;6595;49.578;11.012;2023-11-22T11:24:23;9.6;;;5.4;;
13057;SDS011;6595;49.578;11.012;2023-11-22T11:26:23;10.2;;;5.6;;
13057;SDS011;6595;49.578;11.012;2023-11-22T11:28:24;10.2;;;5.6;;
13057;SDS011;6595;49.578;11.012;2023-11-22T11:32:31;12.9;;;5.7;;
13057;SDS011;6595;49.578;11.012;2023-11-22T11:34:23;11.3;;;5.8;;
13057;SDS011;6595;49.578;11.012;2023-11-22T11:36:24;10.4;;;5.9;;
13057;SDS011;6595;49.578;11.012;2023-11-22T11:38:27;10.4;;;5.9;;
13057;SDS011;6595;49.578;11.012;2023-11-22T11:40:25;10.9;;;5.9;;
13057;SDS011;6595;49.578;11.012;2023-11-22T11:42:24;11.1;;;5.9;;
13057;SDS011;6595;49.578;11.012;2023-11-22T11:44:23;12.0;;;5.8;;
13057;SDS011;6595;49.578;11.012;2023-11-22T11:46:23;10.0;;;5.7;;
13057;SDS011;6595;49.578;11.012;2023-11-22T11:48:24;10.0;;;5.7;;
13057;SDS011;6595;49.578;11.012;2023-11-22T11:50:23;10.4;;;5.9;;
13057;SDS011;6595;49.578;11.012;2023-11-22T11:52:24;12.0;;;5.4;;
13057;SDS011;6595;49.578;11.012;2023-11-22T11:54:24;11.0;;;6.3;;
13057;SDS011;6595;49.578;11.012;2023-11-22T11:56:23;11.0;;;6.3;;
13057;SDS011;6595;49.578;11.012;2023-11-22T11:58:23;10.5;;;5.8;;
13057;SDS011;6595;49.578;11.012;2023-11-22T12:00:24;10.5;;;5.8;;
13057;SDS011;6595;49.578;11.012;2023-11-22T12:02:23;10.5;;;5.5;;
13057;SDS011;6595;49.578;11.012;2023-11-22T12:04:23;10.0;;;5.4;;
13057;SDS011;6595;49.578;11.012;2023-11-22T12:06:23;10.0;;;5.4;;
13057;SDS011;6595;49.578;11.012;2023-11-22T12:08:23;9.8;;;5.6;;
13057;SDS011;6595;49.578;11.012;2023-11-22T12:10:23;10.8;;;5.4;;
13057;SDS011;6595;49.578;11.012;2023-11-22T12:12:23;9.1;;;5.6;;
13057;SDS011;6595;49.578;11.012;2023-11-22T12:14:23;9.1;;;5.6;;
13057;SDS011;6595;49.578;11.012;2023-11-22T12:16:23;10.1;;;5.8;;
13057;SDS011;6595;49.578;11.012;2023-11-22T12:18:24;9.7;;;5.6;;
13057;SDS011;6595;49.578;11.012;2023-11-22T12:20:23;10.8;;;5.7;;